createdAt,value
2023-05-11T00:03:54.286Z,15.20
2023-05-11T00:07:57.361Z,15.20
2023-05-11T00:12:00.412Z,15.20
2023-05-11T00:16:04.088Z,15.20
2023-05-11T00:20:09.910Z,15.20
2023-05-11T00:24:12.913Z,15.20
2023-05-11T00:28:16.030Z,15.20
2023-05-11T00:32:18.999Z,15.20
2023-05-11T00:36:23.404Z,15.10
2023-05-11T00:40:26.804Z,15.10
2023-05-11T00:44:29.775Z,15.10
2023-05-11T00:48:32.953Z,15.10
2023-05-11T00:52:38.472Z,15.00
2023-05-11T00:56:41.695Z,15.00
2023-05-11T01:00:44.798Z,15.00
2023-05-11T01:04:47.862Z,15.00
2023-05-11T01:08:57.962Z,15.00
2023-05-11T01:13:15.912Z,15.00
2023-05-11T01:17:32.550Z,15.00
2023-05-11T01:21:36.838Z,14.90
2023-05-11T01:26:15.294Z,14.90
2023-05-11T01:30:31.524Z,14.90
2023-05-11T01:34:36.989Z,14.90
2023-05-11T01:38:42.098Z,14.90
2023-05-11T01:42:49.622Z,14.90
2023-05-11T01:46:54.434Z,14.90
2023-05-11T01:51:01.475Z,14.90
2023-05-11T01:55:08.441Z,14.80
2023-05-11T01:59:12.965Z,14.80
2023-05-11T02:03:17.969Z,14.80
2023-05-11T02:07:23.453Z,14.80
2023-05-11T02:11:29.107Z,14.80
2023-05-11T02:15:33.900Z,14.80
2023-05-11T02:19:39.864Z,14.80
2023-05-11T02:23:44.364Z,14.80
2023-05-11T02:27:47.432Z,14.80
2023-05-11T02:31:53.979Z,14.80
2023-05-11T02:36:00.427Z,14.80
2023-05-11T02:40:07.517Z,14.80
2023-05-11T02:44:15.418Z,14.80
2023-05-11T02:48:23.935Z,14.80
2023-05-11T02:52:29.320Z,14.80
2023-05-11T02:56:32.738Z,14.80
2023-05-11T03:00:36.038Z,14.80
2023-05-11T03:04:39.966Z,14.80
2023-05-11T03:08:44.588Z,14.70
2023-05-11T03:12:48.146Z,14.70
2023-05-11T03:16:52.145Z,14.70
2023-05-11T03:20:55.493Z,14.70
2023-05-11T03:25:00.898Z,14.70
2023-05-11T03:29:04.384Z,14.70
2023-05-11T03:33:07.539Z,14.70
2023-05-11T03:37:13.619Z,14.70
2023-05-11T03:41:20.010Z,14.60
2023-05-11T03:45:24.093Z,14.60
2023-05-11T03:49:27.998Z,14.60
2023-05-11T03:53:31.916Z,14.60
2023-05-11T03:57:36.887Z,14.60
2023-05-11T04:01:39.941Z,14.60
2023-05-11T04:05:43.148Z,14.60
2023-05-11T04:09:46.207Z,14.60
2023-05-11T04:13:50.525Z,14.50
2023-05-11T04:17:53.693Z,14.50
2023-05-11T04:21:56.765Z,14.50
2023-05-11T04:25:59.747Z,14.50
2023-05-11T04:30:04.182Z,14.50
2023-05-11T04:34:08.644Z,14.50
2023-05-11T04:38:11.662Z,14.50
2023-05-11T04:42:14.678Z,14.40
2023-05-11T04:46:19.217Z,14.50
2023-05-11T04:50:22.293Z,14.40
2023-05-11T04:54:25.364Z,14.40
2023-05-11T04:58:28.366Z,14.40
2023-05-11T05:02:32.705Z,14.40
2023-05-11T05:06:35.846Z,14.40
2023-05-11T05:10:39.042Z,14.40
2023-05-11T05:14:42.137Z,14.40
2023-05-11T05:18:46.909Z,14.40
2023-05-11T05:22:50.153Z,14.40
2023-05-11T05:26:53.187Z,14.40
2023-05-11T05:30:56.248Z,14.40
2023-05-11T05:35:00.785Z,14.40
2023-05-11T05:39:08.822Z,14.50
2023-05-11T05:43:11.815Z,14.50
2023-05-11T05:47:14.831Z,14.50
2023-05-11T05:51:19.231Z,14.60
2023-05-11T05:55:22.847Z,14.60
2023-05-11T05:59:25.854Z,14.70
2023-05-11T06:03:29.775Z,14.70
2023-05-11T06:07:34.502Z,14.80
2023-05-11T06:11:38.244Z,14.80
2023-05-11T06:15:46.946Z,14.80
2023-05-11T06:19:50.753Z,14.90
2023-05-11T06:23:55.247Z,14.90
2023-05-11T06:27:58.240Z,14.90
2023-05-11T06:32:01.340Z,14.90
2023-05-11T06:36:08.083Z,15.00
2023-05-11T06:40:13.526Z,15.00
2023-05-11T06:44:16.494Z,15.00
2023-05-11T06:48:19.992Z,15.00
2023-05-11T06:52:23.090Z,15.00
2023-05-11T06:56:27.963Z,15.00
2023-05-11T07:00:31.068Z,15.10
2023-05-11T07:04:34.072Z,15.10
2023-05-11T07:08:37.109Z,15.10
2023-05-11T07:12:41.476Z,15.10
2023-05-11T07:16:44.604Z,15.10
2023-05-11T07:20:50.089Z,15.10
2023-05-11T07:24:53.340Z,15.10
2023-05-11T07:28:57.785Z,15.20
2023-05-11T07:33:00.859Z,15.20
2023-05-11T07:37:03.878Z,15.30
2023-05-11T07:41:08.886Z,15.30
2023-05-11T07:45:14.782Z,15.30
2023-05-11T07:49:23.002Z,15.40
2023-05-11T07:53:34.249Z,15.40
2023-05-11T07:57:37.453Z,15.40
2023-05-11T08:01:42.007Z,15.40
2023-05-11T08:05:45.072Z,15.40
2023-05-11T08:09:48.133Z,15.50
2023-05-11T08:13:51.716Z,15.50
2023-05-11T08:17:56.214Z,15.60
2023-05-11T08:21:59.284Z,15.70
2023-05-11T08:26:02.762Z,15.70
2023-05-11T08:30:06.665Z,15.80
2023-05-11T08:38:18.982Z,15.80
2023-05-11T08:42:25.073Z,15.90
2023-05-11T08:46:31.190Z,15.90
2023-05-11T08:50:36.047Z,16.00
2023-05-11T08:54:39.336Z,16.00
2023-05-11T08:58:43.480Z,16.00
2023-05-11T09:02:47.214Z,16.10
2023-05-11T09:06:52.354Z,16.20
2023-05-11T09:10:56.252Z,16.20
2023-05-11T09:15:02.440Z,16.20
2023-05-11T09:19:06.415Z,16.20
2023-05-11T09:23:11.063Z,16.20
2023-05-11T09:27:21.304Z,16.30
2023-05-11T09:31:37.933Z,16.30
2023-05-11T09:35:40.942Z,16.40
2023-05-11T09:40:14.008Z,16.40
2023-05-11T09:44:10.467Z,16.40
2023-05-11T09:48:26.937Z,16.40
2023-05-11T09:52:30.042Z,16.40
2023-05-11T09:56:48.327Z,16.50
2023-05-11T10:00:52.243Z,16.50
2023-05-11T10:04:57.694Z,16.50
2023-05-11T10:09:10.116Z,16.60
2023-05-11T10:13:14.762Z,16.60
2023-05-11T10:17:18.301Z,16.60
2023-05-11T10:21:21.589Z,16.70
2023-05-11T10:25:26.525Z,16.70
2023-05-11T10:29:31.986Z,16.80
2023-05-11T10:33:35.661Z,16.80
2023-05-11T10:37:38.902Z,16.80
2023-05-11T10:41:49.404Z,16.80
2023-05-11T10:46:05.143Z,16.80
2023-05-11T10:50:33.970Z,16.90
2023-05-11T10:54:46.873Z,16.90
2023-05-11T10:59:07.781Z,16.90
2023-05-11T11:03:13.829Z,16.90
2023-05-11T11:07:18.694Z,16.90
2023-05-11T11:11:33.237Z,16.90
2023-05-11T11:16:09.533Z,16.90
2023-05-11T11:20:47.416Z,16.90
2023-05-11T11:24:50.433Z,17.00
2023-05-11T11:29:12.432Z,17.00
2023-05-11T11:33:34.385Z,17.10
2023-05-11T11:38:02.314Z,17.10
2023-05-11T11:42:07.206Z,17.20
2023-05-11T11:46:10.249Z,17.20
2023-05-11T11:50:14.344Z,17.20
2023-05-11T11:54:38.524Z,17.30
2023-05-11T11:59:00.924Z,17.40
2023-05-11T12:03:05.275Z,17.40
2023-05-11T12:07:10.690Z,17.40
2023-05-11T12:11:18.857Z,17.40
2023-05-11T12:15:26.389Z,17.40
2023-05-11T12:19:29.427Z,17.40
2023-05-11T12:23:32.703Z,17.40
2023-05-11T12:27:37.096Z,17.40
2023-05-11T12:31:41.144Z,17.50
2023-05-11T12:35:45.580Z,17.50
2023-05-11T12:39:54.589Z,17.50
2023-05-11T12:43:59.200Z,17.50
2023-05-11T12:48:02.388Z,17.50
2023-05-11T12:52:09.004Z,17.60
2023-05-11T12:56:12.453Z,17.60
2023-05-11T13:00:19.979Z,17.60
2023-05-11T13:04:31.109Z,17.60
2023-05-11T13:08:34.250Z,17.70
2023-05-11T13:12:48.291Z,17.80
2023-05-11T13:16:55.818Z,17.80
2023-05-11T13:21:08.692Z,17.90
2023-05-11T13:25:11.684Z,17.90
2023-05-11T13:29:14.693Z,17.90
2023-05-11T13:33:19.513Z,17.90
2023-05-11T13:37:22.678Z,17.90
2023-05-11T13:41:26.102Z,17.90
2023-05-11T13:45:29.424Z,17.90
2023-05-11T13:49:34.648Z,17.80
2023-05-11T13:53:37.627Z,17.80
2023-05-11T13:57:40.802Z,17.80
2023-05-11T14:01:44.015Z,17.80
2023-05-11T14:05:50.044Z,17.80
2023-05-11T14:09:53.069Z,17.80
2023-05-11T14:13:56.129Z,17.80
2023-05-11T14:17:59.283Z,17.80
2023-05-11T14:22:03.886Z,17.80
2023-05-11T14:26:07.524Z,17.70
2023-05-11T14:30:11.506Z,17.70
2023-05-11T14:34:14.512Z,17.60
2023-05-11T14:38:19.070Z,17.60
2023-05-11T14:42:22.159Z,17.50
2023-05-11T14:46:26.584Z,17.50
2023-05-11T14:50:30.146Z,17.40
2023-05-11T14:54:36.011Z,17.30
2023-05-11T14:58:39.124Z,17.30
2023-05-11T15:02:42.400Z,17.20
2023-05-11T15:06:45.447Z,17.20
2023-05-11T15:10:49.972Z,17.10
2023-05-11T15:14:52.958Z,17.00
2023-05-11T15:18:56.152Z,17.00
2023-05-11T15:22:59.245Z,16.90
2023-05-11T15:27:03.735Z,16.80
2023-05-11T15:31:06.733Z,16.70
2023-05-11T15:35:10.603Z,16.70
2023-05-11T15:39:13.698Z,16.70
2023-05-11T15:43:18.057Z,16.60
2023-05-11T15:47:21.132Z,16.60
2023-05-11T15:51:24.396Z,16.50
2023-05-11T15:55:27.451Z,16.50
2023-05-11T15:59:32.553Z,16.50
2023-05-11T16:03:35.718Z,16.40
2023-05-11T16:07:39.425Z,16.40
2023-05-11T16:11:43.549Z,16.30
2023-05-11T16:15:47.955Z,16.40
2023-05-11T16:19:51.285Z,16.30
2023-05-11T16:23:54.409Z,16.30
2023-05-11T16:27:57.367Z,16.30
2023-05-11T16:32:01.907Z,16.30
2023-05-11T16:36:06.472Z,16.30
2023-05-11T16:40:10.559Z,16.20
2023-05-11T16:44:13.816Z,16.20
2023-05-11T16:48:18.164Z,16.20
2023-05-11T16:52:21.185Z,16.20
2023-05-11T16:56:24.182Z,16.10
2023-05-11T17:00:28.255Z,16.10
2023-05-11T17:04:32.594Z,16.10
2023-05-11T17:08:35.592Z,16.10
2023-05-11T17:12:38.601Z,16.10
2023-05-11T17:16:42.036Z,16.10
2023-05-11T17:20:46.724Z,16.10
2023-05-11T17:24:49.822Z,16.10
2023-05-11T17:28:52.866Z,16.10
2023-05-11T17:32:56.276Z,16.00
2023-05-11T17:37:00.925Z,16.00
2023-05-11T17:41:05.907Z,16.10
2023-05-11T17:45:10.250Z,16.00
2023-05-11T17:49:13.247Z,16.00
2023-05-11T17:53:17.652Z,16.10
2023-05-11T17:57:23.399Z,16.10
2023-05-11T18:01:27.568Z,16.10
2023-05-11T18:05:40.302Z,16.10
2023-05-11T18:09:53.385Z,16.10
2023-05-11T18:13:57.473Z,16.00
2023-05-11T18:18:00.481Z,16.00
2023-05-11T18:22:04.611Z,16.00
2023-05-11T18:26:08.955Z,16.00
2023-05-11T18:30:12.751Z,16.00
2023-05-11T18:34:15.781Z,15.90
2023-05-11T18:38:18.784Z,15.90
2023-05-11T18:42:23.126Z,15.90
2023-05-11T18:46:26.141Z,15.80
2023-05-11T18:50:30.028Z,15.80
2023-05-11T18:54:33.809Z,15.80
2023-05-11T18:58:38.408Z,15.80
2023-05-11T19:02:41.519Z,15.80
2023-05-11T19:06:44.625Z,15.70
2023-05-11T19:10:49.461Z,15.70
2023-05-11T19:14:56.231Z,15.70
2023-05-11T19:18:59.441Z,15.70
2023-05-11T19:23:04.353Z,15.70
2023-05-11T19:27:08.158Z,15.60
2023-05-11T19:31:13.745Z,15.60
2023-05-11T19:35:17.724Z,15.60
2023-05-11T19:39:20.712Z,15.60
2023-05-11T19:43:23.933Z,15.60
2023-05-11T19:47:28.566Z,15.60
2023-05-11T19:51:32.008Z,15.60
2023-05-11T19:55:35.214Z,15.50
2023-05-11T19:59:39.068Z,15.50
2023-05-11T20:03:50.856Z,15.50
2023-05-11T20:07:53.923Z,15.50
2023-05-11T20:11:56.898Z,15.50
2023-05-11T20:16:00.334Z,15.50
2023-05-11T20:20:05.217Z,15.50
2023-05-11T20:24:08.833Z,15.50
2023-05-11T20:28:12.327Z,15.50
2023-05-11T20:32:15.458Z,15.50
2023-05-11T20:36:21.001Z,15.50
2023-05-11T20:40:25.437Z,15.50
2023-05-11T20:44:28.516Z,15.50
2023-05-11T20:48:39.956Z,15.50
2023-05-11T20:52:44.728Z,15.50
2023-05-11T20:56:47.756Z,15.50
2023-05-11T21:00:50.775Z,15.50
2023-05-11T21:05:01.510Z,15.50
2023-05-11T21:09:06.524Z,15.50
2023-05-11T21:13:09.776Z,15.50
2023-05-11T21:17:12.801Z,15.40
2023-05-11T21:21:15.975Z,15.40
2023-05-11T21:25:20.415Z,15.40
2023-05-11T21:29:23.443Z,15.40
2023-05-11T21:33:26.489Z,15.40
2023-05-11T21:37:33.375Z,15.40
2023-05-11T21:41:37.736Z,15.40
2023-05-11T21:45:41.116Z,15.40
2023-05-11T21:49:44.144Z,15.40
2023-05-11T21:53:47.133Z,15.40
2023-05-11T21:57:51.555Z,15.40
2023-05-11T22:01:55.329Z,15.30
2023-05-11T22:05:58.357Z,15.30
2023-05-11T22:10:01.434Z,15.40
2023-05-11T22:14:06.468Z,15.40
2023-05-11T22:18:09.579Z,15.40
2023-05-11T22:22:12.652Z,15.40
2023-05-11T22:26:15.667Z,15.40
2023-05-11T22:30:20.534Z,15.40
2023-05-11T22:34:24.444Z,15.40
2023-05-11T22:38:27.705Z,15.40
2023-05-11T22:42:32.845Z,15.40
2023-05-11T22:46:37.307Z,15.40
2023-05-11T22:50:46.584Z,15.40
2023-05-11T22:54:54.588Z,15.40
2023-05-11T22:58:59.930Z,15.40
2023-05-11T23:03:05.348Z,15.40
2023-05-11T23:07:12.059Z,15.40
2023-05-11T23:11:16.145Z,15.40
2023-05-11T23:15:19.423Z,15.40
2023-05-11T23:19:25.190Z,15.40
2023-05-11T23:23:28.351Z,15.40
2023-05-11T23:27:31.418Z,15.40
2023-05-11T23:31:34.507Z,15.40
2023-05-11T23:35:39.149Z,15.30
2023-05-11T23:39:42.127Z,15.30
2023-05-11T23:43:45.129Z,15.20
2023-05-11T23:47:48.169Z,15.10
2023-05-11T23:51:52.679Z,15.10
2023-05-11T23:55:55.685Z,15.00
2023-05-11T23:59:58.859Z,14.90
